createdAt,value
2019-02-21T00:00:49.916Z,28.33
2019-02-21T00:03:20.252Z,25.83
2019-02-21T00:05:50.564Z,26.27
2019-02-21T00:08:20.974Z,26.90
2019-02-21T00:10:51.410Z,25.30
2019-02-21T00:13:22.044Z,28.07
2019-02-21T00:15:52.637Z,26.50
2019-02-21T00:18:23.027Z,24.70
2019-02-21T00:20:53.738Z,28.60
2019-02-21T00:23:23.979Z,26.40
2019-02-21T00:25:55.793Z,29.10
2019-02-21T00:28:27.255Z,33.07
2019-02-21T00:30:57.700Z,27.03
2019-02-21T00:33:28.182Z,28.70
2019-02-21T00:35:58.826Z,28.40
2019-02-21T00:38:31.657Z,34.47
2019-02-21T00:41:01.889Z,25.40
2019-02-21T00:43:32.571Z,28.93
2019-02-21T00:46:02.833Z,23.53
2019-02-21T00:48:32.948Z,24.47
2019-02-21T00:51:06.529Z,25.90
2019-02-21T00:53:36.776Z,26.17
2019-02-21T00:56:07.323Z,33.70
2019-02-21T00:58:37.545Z,28.83
2019-02-21T01:01:08.360Z,28.77
2019-02-21T01:03:38.737Z,27.33
2019-02-21T01:06:08.936Z,25.97
2019-02-21T01:08:39.044Z,30.90
2019-02-21T01:11:09.848Z,27.50
2019-02-21T01:13:40.886Z,27.10
2019-02-21T01:16:11.117Z,26.67
2019-02-21T01:18:42.033Z,29.67
2019-02-21T01:21:12.320Z,27.53
2019-02-21T01:23:42.577Z,35.37
2019-02-21T01:26:13.168Z,29.03
2019-02-21T01:28:44.209Z,27.57
2019-02-21T01:31:14.490Z,26.27
2019-02-21T01:33:44.716Z,28.80
2019-02-21T01:36:14.899Z,24.57
2019-02-21T01:38:45.004Z,28.50
2019-02-21T01:41:15.574Z,31.20
2019-02-21T01:43:46.196Z,27.77
2019-02-21T01:46:16.394Z,24.97
2019-02-21T01:48:46.799Z,26.03
2019-02-21T01:51:19.335Z,25.90
2019-02-21T01:53:49.768Z,25.83
2019-02-21T01:56:19.796Z,29.43
2019-02-21T01:58:49.847Z,26.13
2019-02-21T02:01:20.659Z,26.13
2019-02-21T02:03:51.136Z,27.43
2019-02-21T02:06:21.284Z,28.03
2019-02-21T02:08:52.201Z,29.47
2019-02-21T02:11:22.494Z,36.97
2019-02-21T02:13:52.631Z,29.40
2019-02-21T02:16:23.090Z,38.30
2019-02-21T02:18:54.178Z,30.87
2019-02-21T02:21:24.444Z,27.70
2019-02-21T02:23:54.662Z,25.30
2019-02-21T02:26:25.146Z,29.83
2019-02-21T02:28:55.370Z,29.93
2019-02-21T02:31:25.817Z,25.53
2019-02-21T02:33:56.433Z,30.30
2019-02-21T02:36:26.795Z,27.33
2019-02-21T02:38:57.353Z,33.80
2019-02-21T02:41:27.460Z,35.93
2019-02-21T02:43:59.201Z,26.20
2019-02-21T02:46:29.565Z,28.13
2019-02-21T02:49:00.118Z,31.20
2019-02-21T02:51:30.516Z,30.40
2019-02-21T02:54:01.013Z,28.10
2019-02-21T02:56:31.270Z,45.93
2019-02-21T02:59:02.173Z,28.70
2019-02-21T03:01:35.066Z,30.83
2019-02-21T03:04:04.483Z,30.50
2019-02-21T03:06:35.247Z,29.70
2019-02-21T03:09:08.335Z,27.53
2019-02-21T03:11:38.585Z,28.70
2019-02-21T03:14:09.622Z,27.33
2019-02-21T03:16:40.449Z,32.93
2019-02-21T03:19:11.140Z,30.10
2019-02-21T03:21:41.379Z,37.70
2019-02-21T03:24:11.857Z,31.97
2019-02-21T03:26:42.326Z,32.67
2019-02-21T03:29:13.805Z,31.83
2019-02-21T03:31:54.819Z,30.73
2019-02-21T03:34:16.542Z,28.47
2019-02-21T03:36:47.078Z,32.80
2019-02-21T03:39:17.360Z,29.37
2019-02-21T03:41:48.045Z,32.03
2019-02-21T03:44:18.910Z,32.40
2019-02-21T03:46:49.491Z,31.83
2019-02-21T03:49:19.813Z,28.40
2019-02-21T03:51:50.145Z,33.07
2019-02-21T03:54:21.320Z,34.13
2019-02-21T03:56:51.807Z,32.60
2019-02-21T03:59:22.884Z,37.13
2019-02-21T04:02:04.508Z,31.53
2019-02-21T04:04:25.169Z,34.03
2019-02-21T04:06:55.431Z,31.80
2019-02-21T04:09:25.912Z,33.47
2019-02-21T04:11:56.163Z,29.20
2019-02-21T04:14:27.075Z,30.33
2019-02-21T04:16:57.914Z,35.10
2019-02-21T04:19:28.242Z,32.33
2019-02-21T04:21:58.939Z,34.50
2019-02-21T04:24:29.681Z,33.30
2019-02-21T04:27:00.371Z,32.60
2019-02-21T04:29:33.609Z,32.83
2019-02-21T04:32:03.956Z,34.93
2019-02-21T04:34:34.739Z,32.67
2019-02-21T04:37:05.398Z,33.57
2019-02-21T04:39:35.689Z,34.73
2019-02-21T04:42:06.341Z,35.70
2019-02-21T04:44:36.846Z,39.13
2019-02-21T04:47:07.319Z,36.80
2019-02-21T04:49:37.950Z,32.80
2019-02-21T04:52:08.329Z,36.00
2019-02-21T04:54:38.709Z,31.43
2019-02-21T04:57:09.005Z,37.40
2019-02-21T04:59:40.448Z,37.73
2019-02-21T05:02:13.377Z,38.27
2019-02-21T05:04:44.386Z,41.60
2019-02-21T05:07:15.750Z,36.10
2019-02-21T05:09:57.619Z,40.83
2019-02-21T05:12:20.267Z,37.23
2019-02-21T05:14:51.388Z,35.50
2019-02-21T05:17:23.149Z,38.17
2019-02-21T05:19:53.690Z,44.13
2019-02-21T05:22:23.863Z,41.47
2019-02-21T05:24:54.515Z,50.20
2019-02-21T05:27:29.369Z,42.10
2019-02-21T05:29:59.685Z,43.23
2019-02-21T05:32:48.400Z,39.13
2019-02-21T05:35:36.518Z,44.70
2019-02-21T05:38:24.659Z,42.60
2019-02-21T05:41:05.825Z,44.37
2019-02-21T05:43:58.519Z,40.67
2019-02-21T05:46:49.009Z,37.07
2019-02-21T05:49:44.604Z,39.00
2019-02-21T05:52:40.334Z,37.93
2019-02-21T05:55:23.400Z,41.70
2019-02-21T05:58:12.744Z,42.03
2019-02-21T06:01:10.984Z,41.50
2019-02-21T06:03:49.684Z,37.43
2019-02-21T06:06:45.804Z,35.17
2019-02-21T06:09:27.839Z,40.60
2019-02-21T06:12:11.798Z,38.77
2019-02-21T06:15:00.557Z,38.20
2019-02-21T06:17:54.404Z,40.97
2019-02-21T06:20:53.426Z,41.47
2019-02-21T06:23:44.361Z,41.87
2019-02-21T06:26:39.501Z,48.83
2019-02-21T06:29:41.412Z,43.47
2019-02-21T06:32:14.547Z,52.47
2019-02-21T06:34:44.374Z,46.73
2019-02-21T06:37:17.728Z,42.00
2019-02-21T06:39:47.941Z,46.53
2019-02-21T06:42:18.222Z,46.20
2019-02-21T06:44:48.892Z,60.87
2019-02-21T06:47:19.102Z,51.37
2019-02-21T06:49:52.084Z,49.10
2019-02-21T06:52:22.548Z,52.00
2019-02-21T06:54:52.673Z,52.43
2019-02-21T06:57:36.933Z,56.67
2019-02-21T07:00:05.305Z,47.77
2019-02-21T07:02:38.956Z,46.73
2019-02-21T07:05:11.947Z,53.07
2019-02-21T07:07:42.299Z,57.27
2019-02-21T07:10:15.547Z,45.50
2019-02-21T07:12:46.999Z,54.23
2019-02-21T07:15:17.361Z,49.20
2019-02-21T07:17:49.492Z,52.90
2019-02-21T07:20:20.483Z,58.60
2019-02-21T07:22:50.873Z,51.47
2019-02-21T07:25:34.665Z,50.90
2019-02-21T07:28:11.707Z,52.77
2019-02-21T07:30:37.130Z,55.27
2019-02-21T07:33:07.925Z,50.97
2019-02-21T07:35:38.326Z,50.57
2019-02-21T07:38:10.477Z,55.40
2019-02-21T07:40:41.080Z,51.47
2019-02-21T07:43:12.855Z,49.73
2019-02-21T07:45:43.769Z,52.70
2019-02-21T07:48:13.991Z,52.13
2019-02-21T07:50:44.156Z,53.37
2019-02-21T07:53:14.861Z,49.47
2019-02-21T07:55:45.104Z,54.87
2019-02-21T07:58:15.428Z,48.30
2019-02-21T08:00:49.030Z,45.93
2019-02-21T08:03:29.781Z,48.47
2019-02-21T08:05:51.357Z,46.63
2019-02-21T08:08:22.157Z,55.83
2019-02-21T08:10:52.513Z,59.10
2019-02-21T08:13:22.887Z,49.77
2019-02-21T08:15:53.678Z,50.70
2019-02-21T08:18:23.976Z,45.87
2019-02-21T08:20:54.376Z,49.50
2019-02-21T08:23:25.557Z,45.97
2019-02-21T08:25:55.954Z,49.73
2019-02-21T08:28:28.081Z,46.77
2019-02-21T08:30:58.882Z,50.70
2019-02-21T08:33:58.391Z,47.53
2019-02-21T08:36:26.069Z,43.17
2019-02-21T08:38:56.983Z,41.90
2019-02-21T08:41:27.234Z,44.57
2019-02-21T08:44:00.169Z,42.73
2019-02-21T08:46:30.330Z,48.83
2019-02-21T08:49:00.791Z,43.67
2019-02-21T08:51:31.197Z,41.40
2019-02-21T08:54:01.843Z,43.00
2019-02-21T08:56:32.002Z,44.93
2019-02-21T08:59:02.267Z,46.67
2019-02-21T09:01:34.378Z,43.63
2019-02-21T09:04:13.340Z,43.43
2019-02-21T09:06:36.935Z,43.37
2019-02-21T09:09:08.165Z,41.93
2019-02-21T09:11:38.515Z,52.60
2019-02-21T09:14:11.968Z,45.00
2019-02-21T09:16:42.802Z,52.20
2019-02-21T09:19:13.311Z,48.30
2019-02-21T09:21:44.562Z,52.30
2019-02-21T09:24:26.857Z,49.53
2019-02-21T09:26:46.571Z,48.80
2019-02-21T09:29:17.129Z,49.30
2019-02-21T09:31:47.416Z,50.33
2019-02-21T09:34:21.513Z,47.03
2019-02-21T09:36:51.460Z,48.00
2019-02-21T09:39:21.841Z,48.10
2019-02-21T09:41:52.031Z,44.30
2019-02-21T09:44:22.342Z,48.30
2019-02-21T09:46:52.749Z,47.50
2019-02-21T09:49:23.564Z,49.63
2019-02-21T09:51:54.263Z,48.57
2019-02-21T09:54:24.755Z,48.00
2019-02-21T09:57:12.252Z,46.37
2019-02-21T09:59:28.818Z,51.57
2019-02-21T10:01:59.146Z,51.50
2019-02-21T10:04:32.455Z,54.57
2019-02-21T10:07:03.811Z,48.80
2019-02-21T10:09:34.209Z,49.77
2019-02-21T10:12:04.955Z,42.87
2019-02-21T10:14:35.289Z,46.67
2019-02-21T10:17:05.517Z,47.53
2019-02-21T10:19:40.306Z,47.33
2019-02-21T10:22:13.401Z,46.10
2019-02-21T10:24:44.030Z,50.93
2019-02-21T10:27:14.062Z,50.93
2019-02-21T10:29:44.297Z,50.10
2019-02-21T10:32:15.100Z,48.20
2019-02-21T10:34:48.310Z,46.33
2019-02-21T10:37:18.840Z,45.70
2019-02-21T10:39:51.027Z,43.63
2019-02-21T10:42:21.265Z,44.50
2019-02-21T10:44:53.413Z,48.57
2019-02-21T10:47:24.241Z,42.40
2019-02-21T10:49:55.000Z,48.30
2019-02-21T10:52:25.524Z,45.73
2019-02-21T10:54:55.992Z,45.30
2019-02-21T10:57:35.243Z,47.43
2019-02-21T11:00:10.449Z,45.37
2019-02-21T11:02:41.965Z,43.13
2019-02-21T11:05:14.185Z,42.50
2019-02-21T11:07:45.848Z,45.50
2019-02-21T11:10:19.201Z,44.50
2019-02-21T11:12:49.663Z,38.80
2019-02-21T11:15:20.275Z,43.10
2019-02-21T11:17:50.920Z,48.30
2019-02-21T11:20:21.289Z,41.07
2019-02-21T11:22:51.789Z,46.57
2019-02-21T11:25:22.060Z,42.73
2019-02-21T11:27:52.571Z,43.80
2019-02-21T11:30:23.505Z,44.47
2019-02-21T11:32:54.213Z,48.70
2019-02-21T11:35:24.716Z,45.57
2019-02-21T11:37:56.533Z,46.43
2019-02-21T11:40:27.093Z,43.13
2019-02-21T11:42:57.610Z,45.93
2019-02-21T11:45:28.071Z,44.90
2019-02-21T11:48:00.305Z,42.77
2019-02-21T11:50:31.151Z,45.60
2019-02-21T11:53:02.158Z,41.87
2019-02-21T11:55:32.856Z,40.60
2019-02-21T11:58:03.683Z,39.30
2019-02-21T12:00:35.821Z,40.93
2019-02-21T12:03:06.163Z,35.47
2019-02-21T12:05:36.660Z,39.47
2019-02-21T12:08:10.030Z,34.17
2019-02-21T12:10:41.101Z,40.53
2019-02-21T12:13:11.554Z,35.60
2019-02-21T12:15:43.425Z,36.93
2019-02-21T12:18:14.645Z,34.17
2019-02-21T12:20:45.011Z,34.27
2019-02-21T12:23:17.689Z,35.77
2019-02-21T12:25:47.249Z,36.17
2019-02-21T12:28:17.527Z,30.63
2019-02-21T12:30:47.835Z,27.67
2019-02-21T12:33:19.341Z,28.53
2019-02-21T12:35:50.104Z,27.60
2019-02-21T12:38:23.700Z,29.03
2019-02-21T12:40:54.274Z,28.10
2019-02-21T12:43:25.899Z,30.97
2019-02-21T12:46:01.442Z,27.17
2019-02-21T12:48:32.005Z,32.10
2019-02-21T12:51:02.329Z,29.60
2019-02-21T12:53:37.645Z,28.80
2019-02-21T12:56:08.300Z,31.60
2019-02-21T12:58:41.369Z,35.23
2019-02-21T13:01:16.007Z,29.57
2019-02-21T13:03:46.394Z,33.60
2019-02-21T13:06:16.913Z,34.97
2019-02-21T13:08:49.980Z,34.07
2019-02-21T13:11:22.987Z,33.50
2019-02-21T13:13:54.513Z,35.90
2019-02-21T13:16:26.965Z,34.23
2019-02-21T13:18:59.019Z,35.90
2019-02-21T13:21:29.335Z,37.00
2019-02-21T13:24:02.708Z,30.90
2019-02-21T13:26:35.175Z,38.53
2019-02-21T13:29:05.510Z,38.70
2019-02-21T13:31:35.546Z,43.57
2019-02-21T13:34:05.945Z,43.43
2019-02-21T13:36:37.794Z,32.07
2019-02-21T13:39:09.413Z,39.27
2019-02-21T13:41:39.660Z,38.30
2019-02-21T13:44:10.106Z,32.40
2019-02-21T13:46:41.748Z,39.63
2019-02-21T13:49:13.555Z,45.40
2019-02-21T13:51:54.443Z,42.30
2019-02-21T13:54:24.976Z,39.40
2019-02-21T13:56:58.011Z,35.97
2019-02-21T13:59:31.587Z,44.70
2019-02-21T14:02:19.929Z,38.30
2019-02-21T14:04:52.227Z,38.00
2019-02-21T14:07:23.841Z,41.63
2019-02-21T14:09:54.180Z,42.07
2019-02-21T14:12:26.477Z,36.90
2019-02-21T14:14:58.062Z,35.70
2019-02-21T14:17:28.968Z,35.43
2019-02-21T14:20:01.138Z,46.87
2019-02-21T14:22:31.602Z,41.80
2019-02-21T14:25:02.052Z,45.97
2019-02-21T14:27:35.162Z,41.43
2019-02-21T14:30:06.685Z,45.40
2019-02-21T14:32:37.925Z,40.90
2019-02-21T14:35:14.030Z,43.77
2019-02-21T14:37:43.911Z,37.50
2019-02-21T14:40:14.389Z,38.70
2019-02-21T14:42:44.819Z,36.50
2019-02-21T14:45:17.500Z,41.20
2019-02-21T14:47:51.135Z,43.13
2019-02-21T14:50:21.873Z,41.30
2019-02-21T14:52:58.480Z,37.57
2019-02-21T14:55:30.161Z,37.83
2019-02-21T14:58:00.987Z,36.43
2019-02-21T15:00:31.374Z,35.40
2019-02-21T15:03:01.896Z,42.10
2019-02-21T15:05:32.574Z,33.03
2019-02-21T15:08:02.709Z,29.30
2019-02-21T15:10:33.672Z,33.40
2019-02-21T15:13:04.380Z,30.80
2019-02-21T15:15:34.953Z,29.87
2019-02-21T15:18:11.237Z,29.27
2019-02-21T15:20:40.375Z,29.53
2019-02-21T15:23:11.065Z,29.53
2019-02-21T15:25:45.379Z,30.13
2019-02-21T15:28:21.317Z,26.80
2019-02-21T15:30:51.908Z,28.97
2019-02-21T15:33:22.122Z,33.50
2019-02-21T15:35:56.427Z,28.43
2019-02-21T15:38:26.915Z,28.40
2019-02-21T15:40:58.283Z,28.83
2019-02-21T15:43:29.285Z,26.83
2019-02-21T15:45:59.425Z,30.10
2019-02-21T15:48:29.768Z,27.43
2019-02-21T15:51:00.298Z,26.03
2019-02-21T15:53:30.848Z,27.80
2019-02-21T15:56:01.214Z,29.00
2019-02-21T15:58:31.877Z,32.60
2019-02-21T16:01:02.400Z,30.90
2019-02-21T16:03:32.780Z,34.60
2019-02-21T16:06:03.596Z,27.53
2019-02-21T16:08:33.890Z,36.43
2019-02-21T16:11:04.488Z,27.73
2019-02-21T16:13:35.428Z,30.20
2019-02-21T16:16:05.953Z,28.13
2019-02-21T16:18:36.833Z,31.10
2019-02-21T16:21:11.355Z,32.67
2019-02-21T16:23:42.013Z,28.97
2019-02-21T16:26:12.716Z,34.53
2019-02-21T16:28:43.113Z,32.83
2019-02-21T16:31:15.605Z,30.57
2019-02-21T16:33:47.744Z,28.30
2019-02-21T16:36:18.293Z,38.10
2019-02-21T16:38:48.520Z,28.40
2019-02-21T16:41:21.017Z,33.13
2019-02-21T16:43:53.722Z,33.50
2019-02-21T16:46:30.314Z,33.63
2019-02-21T16:49:00.559Z,30.20
2019-02-21T16:51:30.957Z,29.80
2019-02-21T16:54:01.335Z,32.33
2019-02-21T16:56:31.488Z,33.97
2019-02-21T16:59:02.101Z,30.80
2019-02-21T17:01:35.525Z,30.43
2019-02-21T17:04:09.080Z,32.50
2019-02-21T17:06:42.889Z,35.83
2019-02-21T17:09:13.349Z,31.00
2019-02-21T17:11:47.188Z,32.43
2019-02-21T17:14:18.266Z,32.90
2019-02-21T17:16:50.708Z,31.80
2019-02-21T17:19:22.340Z,31.40
2019-02-21T17:21:52.715Z,35.20
2019-02-21T17:24:25.005Z,33.97
2019-02-21T17:27:01.052Z,34.43
2019-02-21T17:29:33.271Z,34.20
2019-02-21T17:32:04.146Z,35.80
2019-02-21T17:34:34.447Z,33.40
2019-02-21T17:37:05.388Z,39.07
2019-02-21T17:39:36.140Z,38.30
2019-02-21T17:42:06.529Z,36.00
2019-02-21T17:44:37.081Z,33.53
2019-02-21T17:47:10.429Z,38.07
2019-02-21T17:49:40.899Z,41.53
2019-02-21T17:52:11.392Z,37.10
2019-02-21T17:54:42.149Z,46.83
2019-02-21T17:57:20.049Z,42.53
2019-02-21T17:59:54.266Z,47.23
2019-02-21T18:02:24.849Z,45.03
2019-02-21T18:04:55.324Z,50.33
2019-02-21T18:07:36.161Z,56.30
2019-02-21T18:09:59.137Z,47.60
2019-02-21T18:12:29.843Z,48.33
2019-02-21T18:15:00.216Z,47.23
2019-02-21T18:17:30.870Z,47.30
2019-02-21T18:20:01.199Z,46.73
2019-02-21T18:22:33.481Z,50.00
2019-02-21T18:25:04.205Z,56.80
2019-02-21T18:27:34.853Z,52.67
2019-02-21T18:30:05.404Z,49.10
2019-02-21T18:32:35.930Z,52.53
2019-02-21T18:35:06.446Z,53.73
2019-02-21T18:37:46.682Z,54.50
2019-02-21T18:40:17.281Z,50.10
2019-02-21T18:42:44.823Z,60.37
2019-02-21T18:45:15.680Z,70.40
2019-02-21T18:47:46.271Z,61.83
2019-02-21T18:50:16.941Z,59.20
2019-02-21T18:52:47.544Z,59.90
2019-02-21T18:55:18.300Z,55.47
2019-02-21T18:57:52.796Z,51.00
2019-02-21T19:00:28.728Z,66.70
2019-02-21T19:02:58.807Z,58.20
2019-02-21T19:05:36.262Z,57.40
2019-02-21T19:08:07.044Z,57.27
2019-02-21T19:10:38.651Z,64.53
2019-02-21T19:13:12.098Z,55.80
2019-02-21T19:15:45.756Z,59.23
2019-02-21T19:18:19.640Z,64.27
2019-02-21T19:20:50.538Z,58.77
2019-02-21T19:23:21.159Z,60.63
2019-02-21T19:25:51.633Z,69.00
2019-02-21T19:28:21.930Z,69.63
2019-02-21T19:30:56.969Z,61.83
2019-02-21T19:33:30.472Z,70.63
2019-02-21T19:36:04.163Z,73.77
2019-02-21T19:38:35.069Z,64.43
2019-02-21T19:41:07.828Z,72.63
2019-02-21T19:43:38.622Z,73.60
2019-02-21T19:46:13.835Z,65.00
2019-02-21T19:49:00.766Z,65.57
2019-02-21T19:51:31.678Z,65.13
2019-02-21T19:54:02.148Z,58.73
2019-02-21T19:56:32.545Z,65.40
2019-02-21T19:59:03.798Z,63.83
2019-02-21T20:01:36.044Z,59.80
2019-02-21T20:04:07.048Z,59.97
2019-02-21T20:06:37.597Z,66.90
2019-02-21T20:09:12.298Z,64.70
2019-02-21T20:11:42.902Z,65.77
2019-02-21T20:14:15.581Z,63.57
2019-02-21T20:16:47.959Z,57.97
2019-02-21T20:19:18.205Z,58.87
2019-02-21T20:21:48.536Z,51.47
2019-02-21T20:24:21.454Z,57.43
2019-02-21T20:26:53.313Z,48.57
2019-02-21T20:29:23.585Z,47.20
2019-02-21T20:31:54.644Z,51.97
2019-02-21T20:34:25.325Z,51.23
2019-02-21T20:36:56.120Z,44.30
2019-02-21T20:39:26.838Z,48.53
2019-02-21T20:41:57.721Z,52.23
2019-02-21T20:44:28.157Z,48.13
2019-02-21T20:46:58.840Z,49.07
2019-02-21T20:49:31.625Z,45.00
2019-02-21T20:52:12.604Z,47.97
2019-02-21T20:54:42.950Z,45.60
2019-02-21T20:57:13.332Z,54.63
2019-02-21T20:59:45.225Z,47.43
2019-02-21T21:02:15.533Z,43.47
2019-02-21T21:04:45.895Z,48.10
2019-02-21T21:07:24.828Z,43.50
2019-02-21T21:09:50.766Z,51.73
2019-02-21T21:12:21.972Z,50.90
2019-02-21T21:14:52.159Z,43.87
2019-02-21T21:17:22.489Z,38.70
2019-02-21T21:19:52.962Z,44.70
2019-02-21T21:22:24.709Z,43.70
2019-02-21T21:24:56.600Z,32.37
2019-02-21T21:27:28.244Z,38.67
2019-02-21T21:29:58.459Z,33.60
2019-02-21T21:32:28.873Z,34.77
2019-02-21T21:34:59.305Z,36.03
2019-02-21T21:37:29.762Z,33.87
2019-02-21T21:40:04.974Z,33.03
2019-02-21T21:42:35.180Z,41.47
2019-02-21T21:45:09.462Z,33.90
2019-02-21T21:47:41.513Z,34.17
2019-02-21T21:50:14.168Z,35.47
2019-02-21T21:52:47.926Z,38.40
2019-02-21T21:55:18.323Z,33.97
2019-02-21T21:57:49.756Z,41.93
2019-02-21T22:00:21.909Z,36.30
2019-02-21T22:02:52.240Z,46.43
2019-02-21T22:05:22.851Z,40.50
2019-02-21T22:07:53.129Z,40.43
2019-02-21T22:10:23.412Z,41.27
2019-02-21T22:12:53.954Z,38.50
2019-02-21T22:15:24.958Z,48.43
2019-02-21T22:17:55.625Z,42.00
2019-02-21T22:20:26.139Z,46.97
2019-02-21T22:22:56.461Z,35.63
2019-02-21T22:25:26.967Z,39.23
2019-02-21T22:27:57.401Z,36.90
2019-02-21T22:30:28.105Z,44.53
2019-02-21T22:32:58.373Z,42.47
2019-02-21T22:35:28.881Z,40.63
2019-02-21T22:38:01.616Z,37.27
2019-02-21T22:40:32.233Z,38.00
2019-02-21T22:43:04.466Z,37.30
2019-02-21T22:45:34.862Z,40.20
2019-02-21T22:48:05.561Z,36.27
2019-02-21T22:50:37.894Z,42.40
2019-02-21T22:53:08.256Z,39.67
2019-02-21T22:55:39.151Z,41.93
2019-02-21T22:58:12.812Z,37.70
2019-02-21T23:01:00.698Z,38.77
2019-02-21T23:03:38.186Z,41.60
2019-02-21T23:06:47.534Z,34.10
2019-02-21T23:09:27.570Z,36.67
2019-02-21T23:11:57.916Z,37.10
2019-02-21T23:14:30.079Z,40.23
2019-02-21T23:17:00.742Z,35.83
2019-02-21T23:19:31.591Z,38.90
2019-02-21T23:22:02.331Z,36.97
2019-02-21T23:24:35.831Z,39.67
2019-02-21T23:27:06.413Z,36.60
2019-02-21T23:29:36.820Z,37.97
2019-02-21T23:32:06.991Z,42.77
2019-02-21T23:34:39.810Z,43.20
2019-02-21T23:37:10.066Z,43.70
2019-02-21T23:39:40.862Z,44.30
2019-02-21T23:42:11.634Z,47.70
2019-02-21T23:44:43.842Z,45.90
2019-02-21T23:47:16.390Z,45.07
2019-02-21T23:49:46.674Z,42.77
2019-02-21T23:52:21.399Z,51.97
2019-02-21T23:54:53.970Z,50.43
2019-02-21T23:57:29.125Z,46.43
2019-02-21T23:59:59.757Z,42.83
